sensor_id;sensor_type;location;lat;lon;timestamp;P1;durP1;ratioP1;P2;durP2;ratioP2
10063;SDS011;5071;52.360;13.134;2023-04-28T00:03:38;3.03;;;1.67;;
10063;SDS011;5071;52.360;13.134;2023-04-28T00:08:42;1.97;;;1.23;;
10063;SDS011;5071;52.360;13.134;2023-04-28T00:13:44;2.13;;;1.50;;
10063;SDS011;5071;52.360;13.134;2023-04-28T00:18:46;4.23;;;1.50;;
10063;SDS011;5071;52.360;13.134;2023-04-28T00:23:49;1.93;;;1.13;;
10063;SDS011;5071;52.360;13.134;2023-04-28T00:28:52;2.83;;;1.43;;
10063;SDS011;5071;52.360;13.134;2023-04-28T00:33:54;2.37;;;1.30;;
10063;SDS011;5071;52.360;13.134;2023-04-28T00:38:57;2.50;;;1.30;;
10063;SDS011;5071;52.360;13.134;2023-04-28T00:44:00;4.43;;;1.70;;
10063;SDS011;5071;52.360;13.134;2023-04-28T00:49:02;3.07;;;1.73;;
10063;SDS011;5071;52.360;13.134;2023-04-28T00:54:06;2.40;;;1.47;;
10063;SDS011;5071;52.360;13.134;2023-04-28T00:59:09;3.90;;;1.50;;
10063;SDS011;5071;52.360;13.134;2023-04-28T01:04:11;4.50;;;1.80;;
10063;SDS011;5071;52.360;13.134;2023-04-28T01:09:15;4.50;;;1.77;;
10063;SDS011;5071;52.360;13.134;2023-04-28T01:14:16;2.07;;;1.50;;
10063;SDS011;5071;52.360;13.134;2023-04-28T01:19:19;7.07;;;2.07;;
10063;SDS011;5071;52.360;13.134;2023-04-28T01:24:23;2.37;;;1.77;;
10063;SDS011;5071;52.360;13.134;2023-04-28T01:29:25;3.17;;;1.80;;
10063;SDS011;5071;52.360;13.134;2023-04-28T01:34:28;3.23;;;1.43;;
10063;SDS011;5071;52.360;13.134;2023-04-28T01:39:31;3.03;;;2.00;;
10063;SDS011;5071;52.360;13.134;2023-04-28T01:44:33;3.80;;;1.77;;
10063;SDS011;5071;52.360;13.134;2023-04-28T01:49:35;1.97;;;1.57;;
10063;SDS011;5071;52.360;13.134;2023-04-28T01:54:38;3.20;;;1.87;;
10063;SDS011;5071;52.360;13.134;2023-04-28T01:59:41;2.17;;;1.93;;
10063;SDS011;5071;52.360;13.134;2023-04-28T02:04:43;4.53;;;2.90;;
10063;SDS011;5071;52.360;13.134;2023-04-28T02:09:47;3.37;;;2.27;;
10063;SDS011;5071;52.360;13.134;2023-04-28T02:14:49;5.03;;;3.00;;
10063;SDS011;5071;52.360;13.134;2023-04-28T02:19:53;3.73;;;3.17;;
10063;SDS011;5071;52.360;13.134;2023-04-28T02:24:57;5.00;;;3.77;;
10063;SDS011;5071;52.360;13.134;2023-04-28T02:29:59;5.50;;;2.93;;
10063;SDS011;5071;52.360;13.134;2023-04-28T02:35:02;4.77;;;3.57;;
10063;SDS011;5071;52.360;13.134;2023-04-28T02:40:06;5.60;;;3.70;;
10063;SDS011;5071;52.360;13.134;2023-04-28T02:45:09;5.73;;;4.00;;
10063;SDS011;5071;52.360;13.134;2023-04-28T02:50:11;7.20;;;4.40;;
10063;SDS011;5071;52.360;13.134;2023-04-28T02:55:15;7.10;;;4.27;;
10063;SDS011;5071;52.360;13.134;2023-04-28T03:00:17;6.87;;;4.97;;
10063;SDS011;5071;52.360;13.134;2023-04-28T03:05:20;7.10;;;4.20;;
10063;SDS011;5071;52.360;13.134;2023-04-28T03:10:23;6.73;;;4.57;;
10063;SDS011;5071;52.360;13.134;2023-04-28T03:15:26;5.47;;;4.43;;
10063;SDS011;5071;52.360;13.134;2023-04-28T03:20:28;6.67;;;4.40;;
10063;SDS011;5071;52.360;13.134;2023-04-28T03:25:32;6.83;;;4.80;;
10063;SDS011;5071;52.360;13.134;2023-04-28T03:30:34;4.87;;;4.30;;
10063;SDS011;5071;52.360;13.134;2023-04-28T03:35:37;8.23;;;5.17;;
10063;SDS011;5071;52.360;13.134;2023-04-28T03:40:40;5.33;;;4.37;;
10063;SDS011;5071;52.360;13.134;2023-04-28T03:45:42;6.00;;;3.30;;
10063;SDS011;5071;52.360;13.134;2023-04-28T03:50:44;5.40;;;3.20;;
10063;SDS011;5071;52.360;13.134;2023-04-28T03:55:48;5.60;;;2.70;;
10063;SDS011;5071;52.360;13.134;2023-04-28T04:00:50;6.13;;;2.70;;
10063;SDS011;5071;52.360;13.134;2023-04-28T04:05:52;5.40;;;2.53;;
10063;SDS011;5071;52.360;13.134;2023-04-28T04:10:55;5.90;;;2.50;;
10063;SDS011;5071;52.360;13.134;2023-04-28T04:15:57;3.23;;;2.40;;
10063;SDS011;5071;52.360;13.134;2023-04-28T04:21:00;6.23;;;2.60;;
10063;SDS011;5071;52.360;13.134;2023-04-28T04:26:03;5.27;;;2.53;;
10063;SDS011;5071;52.360;13.134;2023-04-28T04:31:05;3.93;;;2.83;;
10063;SDS011;5071;52.360;13.134;2023-04-28T04:36:07;3.60;;;2.20;;
10063;SDS011;5071;52.360;13.134;2023-04-28T04:41:11;4.27;;;2.70;;
10063;SDS011;5071;52.360;13.134;2023-04-28T04:46:13;5.03;;;2.77;;
10063;SDS011;5071;52.360;13.134;2023-04-28T04:51:15;7.30;;;3.00;;
10063;SDS011;5071;52.360;13.134;2023-04-28T04:56:18;3.73;;;2.63;;
10063;SDS011;5071;52.360;13.134;2023-04-28T05:01:21;3.27;;;2.13;;
10063;SDS011;5071;52.360;13.134;2023-04-28T05:06:23;2.40;;;2.17;;
10063;SDS011;5071;52.360;13.134;2023-04-28T05:11:26;8.00;;;2.80;;
10063;SDS011;5071;52.360;13.134;2023-04-28T05:16:29;3.77;;;2.33;;
10063;SDS011;5071;52.360;13.134;2023-04-28T05:21:31;3.63;;;2.30;;
10063;SDS011;5071;52.360;13.134;2023-04-28T05:26:35;5.07;;;2.40;;
10063;SDS011;5071;52.360;13.134;2023-04-28T05:31:37;3.43;;;2.47;;
10063;SDS011;5071;52.360;13.134;2023-04-28T05:36:39;5.27;;;2.83;;
10063;SDS011;5071;52.360;13.134;2023-04-28T05:41:43;5.17;;;3.10;;
10063;SDS011;5071;52.360;13.134;2023-04-28T05:46:45;3.50;;;2.40;;
10063;SDS011;5071;52.360;13.134;2023-04-28T05:51:47;2.53;;;2.03;;
10063;SDS011;5071;52.360;13.134;2023-04-28T05:56:51;2.80;;;2.00;;
10063;SDS011;5071;52.360;13.134;2023-04-28T06:01:53;3.30;;;2.47;;
10063;SDS011;5071;52.360;13.134;2023-04-28T06:06:55;4.87;;;2.20;;
10063;SDS011;5071;52.360;13.134;2023-04-28T06:11:59;4.30;;;2.00;;
10063;SDS011;5071;52.360;13.134;2023-04-28T06:17:01;4.33;;;2.20;;
10063;SDS011;5071;52.360;13.134;2023-04-28T06:22:04;3.67;;;2.53;;
10063;SDS011;5071;52.360;13.134;2023-04-28T06:27:07;3.20;;;2.00;;
10063;SDS011;5071;52.360;13.134;2023-04-28T06:32:09;5.40;;;2.30;;
10063;SDS011;5071;52.360;13.134;2023-04-28T06:37:12;4.37;;;2.07;;
10063;SDS011;5071;52.360;13.134;2023-04-28T06:42:15;3.63;;;1.97;;
10063;SDS011;5071;52.360;13.134;2023-04-28T06:47:17;4.00;;;2.47;;
10063;SDS011;5071;52.360;13.134;2023-04-28T06:52:20;4.10;;;2.47;;
10063;SDS011;5071;52.360;13.134;2023-04-28T06:57:32;5.63;;;2.80;;
10063;SDS011;5071;52.360;13.134;2023-04-28T07:02:35;2.33;;;2.00;;
10063;SDS011;5071;52.360;13.134;2023-04-28T07:07:38;5.10;;;2.50;;
10063;SDS011;5071;52.360;13.134;2023-04-28T07:12:42;6.07;;;2.77;;
10063;SDS011;5071;52.360;13.134;2023-04-28T07:17:43;3.67;;;2.27;;
10063;SDS011;5071;52.360;13.134;2023-04-28T07:22:45;5.40;;;2.80;;
10063;SDS011;5071;52.360;13.134;2023-04-28T07:27:49;3.83;;;2.47;;
10063;SDS011;5071;52.360;13.134;2023-04-28T07:32:51;3.97;;;2.60;;
10063;SDS011;5071;52.360;13.134;2023-04-28T07:37:53;4.13;;;2.83;;
10063;SDS011;5071;52.360;13.134;2023-04-28T07:42:57;6.53;;;2.77;;
10063;SDS011;5071;52.360;13.134;2023-04-28T07:47:59;6.97;;;2.90;;
10063;SDS011;5071;52.360;13.134;2023-04-28T07:53:02;6.00;;;2.33;;
10063;SDS011;5071;52.360;13.134;2023-04-28T07:58:05;3.00;;;2.30;;
10063;SDS011;5071;52.360;13.134;2023-04-28T08:03:07;4.77;;;2.77;;
10063;SDS011;5071;52.360;13.134;2023-04-28T08:08:09;2.90;;;2.30;;
10063;SDS011;5071;52.360;13.134;2023-04-28T08:13:13;5.30;;;2.30;;
10063;SDS011;5071;52.360;13.134;2023-04-28T08:18:15;5.97;;;2.60;;
10063;SDS011;5071;52.360;13.134;2023-04-28T08:23:17;4.83;;;2.07;;
10063;SDS011;5071;52.360;13.134;2023-04-28T08:28:20;4.10;;;2.43;;
10063;SDS011;5071;52.360;13.134;2023-04-28T08:33:22;5.20;;;2.70;;
10063;SDS011;5071;52.360;13.134;2023-04-28T08:38:25;6.20;;;2.30;;
10063;SDS011;5071;52.360;13.134;2023-04-28T08:43:28;3.73;;;2.33;;
10063;SDS011;5071;52.360;13.134;2023-04-28T08:48:37;3.93;;;2.43;;
10063;SDS011;5071;52.360;13.134;2023-04-28T08:53:43;6.83;;;2.83;;
10063;SDS011;5071;52.360;13.134;2023-04-28T08:59:11;2.70;;;2.43;;
10063;SDS011;5071;52.360;13.134;2023-04-28T09:04:14;4.83;;;2.80;;
10063;SDS011;5071;52.360;13.134;2023-04-28T09:09:21;4.73;;;2.33;;
10063;SDS011;5071;52.360;13.134;2023-04-28T09:14:26;3.67;;;2.50;;
10063;SDS011;5071;52.360;13.134;2023-04-28T09:19:31;3.40;;;1.93;;
10063;SDS011;5071;52.360;13.134;2023-04-28T09:24:35;6.83;;;2.73;;
10063;SDS011;5071;52.360;13.134;2023-04-28T09:29:47;5.93;;;2.40;;
10063;SDS011;5071;52.360;13.134;2023-04-28T09:34:53;2.53;;;1.90;;
10063;SDS011;5071;52.360;13.134;2023-04-28T09:39:56;3.30;;;2.27;;
10063;SDS011;5071;52.360;13.134;2023-04-28T09:45:00;4.07;;;2.63;;
10063;SDS011;5071;52.360;13.134;2023-04-28T09:50:04;5.73;;;2.80;;
10063;SDS011;5071;52.360;13.134;2023-04-28T09:55:07;6.30;;;2.97;;
10063;SDS011;5071;52.360;13.134;2023-04-28T10:00:12;5.63;;;2.65;;
10063;SDS011;5071;52.360;13.134;2023-04-28T10:05:15;5.18;;;2.40;;
10063;SDS011;5071;52.360;13.134;2023-04-28T10:10:17;6.63;;;2.78;;
10063;SDS011;5071;52.360;13.134;2023-04-28T10:15:21;3.60;;;2.47;;
10063;SDS011;5071;52.360;13.134;2023-04-28T10:20:23;3.80;;;2.35;;
10063;SDS011;5071;52.360;13.134;2023-04-28T10:25:26;4.22;;;2.60;;
10063;SDS011;5071;52.360;13.134;2023-04-28T10:30:31;5.50;;;2.40;;
10063;SDS011;5071;52.360;13.134;2023-04-28T10:35:40;3.97;;;2.60;;
10063;SDS011;5071;52.360;13.134;2023-04-28T10:40:43;4.70;;;2.97;;
10063;SDS011;5071;52.360;13.134;2023-04-28T10:51:27;4.00;;;2.50;;
10063;SDS011;5071;52.360;13.134;2023-04-28T10:56:29;3.97;;;2.67;;
10063;SDS011;5071;52.360;13.134;2023-04-28T11:01:33;4.97;;;2.40;;
10063;SDS011;5071;52.360;13.134;2023-04-28T11:06:36;7.57;;;3.20;;
10063;SDS011;5071;52.360;13.134;2023-04-28T11:11:39;5.30;;;2.90;;
10063;SDS011;5071;52.360;13.134;2023-04-28T11:17:03;3.83;;;2.67;;
10063;SDS011;5071;52.360;13.134;2023-04-28T11:22:12;5.73;;;2.87;;
10063;SDS011;5071;52.360;13.134;2023-04-28T11:27:22;5.37;;;2.50;;
10063;SDS011;5071;52.360;13.134;2023-04-28T11:32:26;4.60;;;2.60;;
10063;SDS011;5071;52.360;13.134;2023-04-28T11:37:29;5.10;;;2.77;;
10063;SDS011;5071;52.360;13.134;2023-04-28T11:42:31;6.50;;;2.97;;
10063;SDS011;5071;52.360;13.134;2023-04-28T11:47:34;4.77;;;2.60;;
10063;SDS011;5071;52.360;13.134;2023-04-28T11:52:35;3.87;;;2.57;;
10063;SDS011;5071;52.360;13.134;2023-04-28T11:57:48;6.50;;;2.60;;
10063;SDS011;5071;52.360;13.134;2023-04-28T12:02:51;7.13;;;2.27;;
10063;SDS011;5071;52.360;13.134;2023-04-28T12:07:54;6.03;;;3.20;;
10063;SDS011;5071;52.360;13.134;2023-04-28T12:12:56;4.90;;;2.90;;
10063;SDS011;5071;52.360;13.134;2023-04-28T12:17:59;4.43;;;3.33;;
10063;SDS011;5071;52.360;13.134;2023-04-28T12:23:10;4.60;;;2.87;;
10063;SDS011;5071;52.360;13.134;2023-04-28T12:28:12;4.40;;;3.10;;
10063;SDS011;5071;52.360;13.134;2023-04-28T12:33:22;4.97;;;3.07;;
10063;SDS011;5071;52.360;13.134;2023-04-28T12:38:25;4.10;;;3.00;;
10063;SDS011;5071;52.360;13.134;2023-04-28T12:43:27;5.33;;;3.63;;
10063;SDS011;5071;52.360;13.134;2023-04-28T12:48:31;3.87;;;3.13;;
10063;SDS011;5071;52.360;13.134;2023-04-28T12:53:33;4.77;;;3.00;;
10063;SDS011;5071;52.360;13.134;2023-04-28T12:58:35;3.87;;;3.10;;
10063;SDS011;5071;52.360;13.134;2023-04-28T13:03:39;6.30;;;3.70;;
10063;SDS011;5071;52.360;13.134;2023-04-28T13:08:41;5.33;;;3.37;;
10063;SDS011;5071;52.360;13.134;2023-04-28T13:13:43;3.80;;;3.10;;
10063;SDS011;5071;52.360;13.134;2023-04-28T13:18:46;6.47;;;3.33;;
10063;SDS011;5071;52.360;13.134;2023-04-28T13:23:48;5.60;;;3.50;;
10063;SDS011;5071;52.360;13.134;2023-04-28T13:28:50;5.97;;;3.10;;
10063;SDS011;5071;52.360;13.134;2023-04-28T13:33:54;5.27;;;3.43;;
10063;SDS011;5071;52.360;13.134;2023-04-28T13:38:56;6.97;;;3.83;;
10063;SDS011;5071;52.360;13.134;2023-04-28T13:44:01;3.57;;;3.00;;
10063;SDS011;5071;52.360;13.134;2023-04-28T13:49:04;4.40;;;3.40;;
10063;SDS011;5071;52.360;13.134;2023-04-28T13:54:06;5.77;;;3.40;;
10063;SDS011;5071;52.360;13.134;2023-04-28T13:59:08;9.17;;;3.57;;
10063;SDS011;5071;52.360;13.134;2023-04-28T14:04:11;5.43;;;3.30;;
10063;SDS011;5071;52.360;13.134;2023-04-28T14:09:14;5.23;;;3.03;;
10063;SDS011;5071;52.360;13.134;2023-04-28T14:14:16;4.83;;;3.00;;
10063;SDS011;5071;52.360;13.134;2023-04-28T14:19:20;3.90;;;3.07;;
10063;SDS011;5071;52.360;13.134;2023-04-28T14:24:22;3.53;;;2.90;;
10063;SDS011;5071;52.360;13.134;2023-04-28T14:29:24;4.50;;;3.27;;
10063;SDS011;5071;52.360;13.134;2023-04-28T14:34:27;5.80;;;3.90;;
10063;SDS011;5071;52.360;13.134;2023-04-28T14:39:29;5.03;;;4.13;;
10063;SDS011;5071;52.360;13.134;2023-04-28T14:44:31;6.27;;;4.00;;
10063;SDS011;5071;52.360;13.134;2023-04-28T14:49:34;5.40;;;3.93;;
10063;SDS011;5071;52.360;13.134;2023-04-28T14:54:36;4.97;;;4.00;;
10063;SDS011;5071;52.360;13.134;2023-04-28T14:59:38;8.97;;;3.93;;
10063;SDS011;5071;52.360;13.134;2023-04-28T15:04:42;5.70;;;3.93;;
10063;SDS011;5071;52.360;13.134;2023-04-28T15:09:44;8.70;;;4.47;;
10063;SDS011;5071;52.360;13.134;2023-04-28T15:14:46;7.87;;;4.10;;
10063;SDS011;5071;52.360;13.134;2023-04-28T15:19:50;7.23;;;3.90;;
10063;SDS011;5071;52.360;13.134;2023-04-28T15:24:52;5.23;;;3.60;;
10063;SDS011;5071;52.360;13.134;2023-04-28T15:29:54;5.90;;;4.03;;
10063;SDS011;5071;52.360;13.134;2023-04-28T15:34:57;4.63;;;3.90;;
10063;SDS011;5071;52.360;13.134;2023-04-28T15:39:59;4.17;;;3.77;;
10063;SDS011;5071;52.360;13.134;2023-04-28T15:45:01;6.90;;;3.90;;
10063;SDS011;5071;52.360;13.134;2023-04-28T15:50:06;6.77;;;4.67;;
10063;SDS011;5071;52.360;13.134;2023-04-28T15:55:09;7.37;;;4.57;;
10063;SDS011;5071;52.360;13.134;2023-04-28T16:00:11;5.20;;;3.63;;
10063;SDS011;5071;52.360;13.134;2023-04-28T16:05:16;5.33;;;3.80;;
10063;SDS011;5071;52.360;13.134;2023-04-28T16:10:18;6.00;;;4.17;;
10063;SDS011;5071;52.360;13.134;2023-04-28T16:15:20;6.13;;;4.20;;
10063;SDS011;5071;52.360;13.134;2023-04-28T16:20:24;5.23;;;4.13;;
10063;SDS011;5071;52.360;13.134;2023-04-28T16:25:26;8.03;;;4.30;;
10063;SDS011;5071;52.360;13.134;2023-04-28T16:30:28;10.73;;;4.47;;
10063;SDS011;5071;52.360;13.134;2023-04-28T16:35:32;5.90;;;4.47;;
10063;SDS011;5071;52.360;13.134;2023-04-28T16:40:34;7.40;;;4.50;;
10063;SDS011;5071;52.360;13.134;2023-04-28T16:45:36;7.10;;;4.63;;
10063;SDS011;5071;52.360;13.134;2023-04-28T16:50:40;5.60;;;4.57;;
10063;SDS011;5071;52.360;13.134;2023-04-28T16:55:42;6.33;;;5.23;;
10063;SDS011;5071;52.360;13.134;2023-04-28T17:00:44;8.50;;;5.93;;
10063;SDS011;5071;52.360;13.134;2023-04-28T17:05:47;9.23;;;5.47;;
10063;SDS011;5071;52.360;13.134;2023-04-28T17:10:49;12.73;;;6.30;;
10063;SDS011;5071;52.360;13.134;2023-04-28T17:15:52;6.77;;;5.87;;
10063;SDS011;5071;52.360;13.134;2023-04-28T17:20:56;7.80;;;5.60;;
10063;SDS011;5071;52.360;13.134;2023-04-28T17:25:58;7.23;;;5.30;;
10063;SDS011;5071;52.360;13.134;2023-04-28T17:31:01;7.27;;;5.40;;
10063;SDS011;5071;52.360;13.134;2023-04-28T17:36:04;8.30;;;6.23;;
10063;SDS011;5071;52.360;13.134;2023-04-28T17:41:06;13.67;;;6.20;;
10063;SDS011;5071;52.360;13.134;2023-04-28T17:46:08;10.60;;;5.60;;
10063;SDS011;5071;52.360;13.134;2023-04-28T17:51:11;7.87;;;6.50;;
10063;SDS011;5071;52.360;13.134;2023-04-28T17:56:13;11.13;;;6.70;;
10063;SDS011;5071;52.360;13.134;2023-04-28T18:01:15;7.37;;;6.37;;
10063;SDS011;5071;52.360;13.134;2023-04-28T18:06:18;9.60;;;6.43;;
10063;SDS011;5071;52.360;13.134;2023-04-28T18:11:21;7.67;;;6.33;;
10063;SDS011;5071;52.360;13.134;2023-04-28T18:16:23;8.53;;;5.60;;
10063;SDS011;5071;52.360;13.134;2023-04-28T18:21:27;6.70;;;5.17;;
10063;SDS011;5071;52.360;13.134;2023-04-28T18:26:29;7.10;;;5.63;;
10063;SDS011;5071;52.360;13.134;2023-04-28T18:31:31;9.63;;;6.07;;
10063;SDS011;5071;52.360;13.134;2023-04-28T18:36:34;9.47;;;6.33;;
10063;SDS011;5071;52.360;13.134;2023-04-28T18:41:37;9.13;;;6.03;;
10063;SDS011;5071;52.360;13.134;2023-04-28T18:46:38;10.60;;;6.83;;
10063;SDS011;5071;52.360;13.134;2023-04-28T18:51:41;6.40;;;5.33;;
10063;SDS011;5071;52.360;13.134;2023-04-28T18:56:43;10.53;;;7.37;;
10063;SDS011;5071;52.360;13.134;2023-04-28T19:01:45;9.33;;;6.17;;
10063;SDS011;5071;52.360;13.134;2023-04-28T19:06:49;5.20;;;4.70;;
10063;SDS011;5071;52.360;13.134;2023-04-28T19:11:52;6.80;;;4.97;;
10063;SDS011;5071;52.360;13.134;2023-04-28T19:16:54;5.93;;;4.70;;
10063;SDS011;5071;52.360;13.134;2023-04-28T19:21:57;5.67;;;5.10;;
10063;SDS011;5071;52.360;13.134;2023-04-28T19:27:00;6.23;;;4.93;;
10063;SDS011;5071;52.360;13.134;2023-04-28T19:32:02;7.03;;;5.27;;
10063;SDS011;5071;52.360;13.134;2023-04-28T19:37:05;7.70;;;5.97;;
10063;SDS011;5071;52.360;13.134;2023-04-28T19:42:07;7.87;;;5.53;;
10063;SDS011;5071;52.360;13.134;2023-04-28T19:47:09;7.03;;;5.50;;
10063;SDS011;5071;52.360;13.134;2023-04-28T19:52:12;9.17;;;6.10;;
10063;SDS011;5071;52.360;13.134;2023-04-28T19:57:14;7.73;;;6.13;;
10063;SDS011;5071;52.360;13.134;2023-04-28T20:02:16;7.80;;;5.80;;
10063;SDS011;5071;52.360;13.134;2023-04-28T20:07:20;7.03;;;5.03;;
10063;SDS011;5071;52.360;13.134;2023-04-28T20:12:22;5.10;;;4.60;;
10063;SDS011;5071;52.360;13.134;2023-04-28T20:17:24;8.33;;;5.10;;
10063;SDS011;5071;52.360;13.134;2023-04-28T20:22:27;8.37;;;5.43;;
10063;SDS011;5071;52.360;13.134;2023-04-28T20:27:29;5.27;;;4.77;;
10063;SDS011;5071;52.360;13.134;2023-04-28T20:32:32;7.43;;;4.87;;
10063;SDS011;5071;52.360;13.134;2023-04-28T20:37:35;7.93;;;5.23;;
10063;SDS011;5071;52.360;13.134;2023-04-28T20:42:37;8.60;;;4.57;;
10063;SDS011;5071;52.360;13.134;2023-04-28T20:47:39;6.30;;;4.73;;
10063;SDS011;5071;52.360;13.134;2023-04-28T20:52:43;8.03;;;4.80;;
10063;SDS011;5071;52.360;13.134;2023-04-28T20:57:45;5.03;;;4.27;;
10063;SDS011;5071;52.360;13.134;2023-04-28T21:02:47;6.70;;;4.37;;
10063;SDS011;5071;52.360;13.134;2023-04-28T21:07:51;4.70;;;4.20;;
10063;SDS011;5071;52.360;13.134;2023-04-28T21:12:53;8.83;;;4.57;;
10063;SDS011;5071;52.360;13.134;2023-04-28T21:17:55;6.90;;;4.40;;
10063;SDS011;5071;52.360;13.134;2023-04-28T21:22:58;6.23;;;4.03;;
10063;SDS011;5071;52.360;13.134;2023-04-28T21:28:01;4.70;;;3.80;;
10063;SDS011;5071;52.360;13.134;2023-04-28T21:33:03;3.50;;;3.20;;
10063;SDS011;5071;52.360;13.134;2023-04-28T21:38:06;4.87;;;3.53;;
10063;SDS011;5071;52.360;13.134;2023-04-28T21:43:08;4.70;;;4.10;;
10063;SDS011;5071;52.360;13.134;2023-04-28T21:48:10;5.27;;;4.03;;
10063;SDS011;5071;52.360;13.134;2023-04-28T21:53:14;6.53;;;4.47;;
10063;SDS011;5071;52.360;13.134;2023-04-28T21:58:16;8.43;;;4.90;;
10063;SDS011;5071;52.360;13.134;2023-04-28T22:03:18;6.93;;;4.43;;
10063;SDS011;5071;52.360;13.134;2023-04-28T22:08:22;8.20;;;4.80;;
10063;SDS011;5071;52.360;13.134;2023-04-28T22:13:25;5.33;;;4.30;;
10063;SDS011;5071;52.360;13.134;2023-04-28T22:18:27;7.67;;;4.63;;
10063;SDS011;5071;52.360;13.134;2023-04-28T22:23:31;6.13;;;4.87;;
10063;SDS011;5071;52.360;13.134;2023-04-28T22:28:33;6.87;;;4.37;;
10063;SDS011;5071;52.360;13.134;2023-04-28T22:33:35;6.93;;;5.30;;
10063;SDS011;5071;52.360;13.134;2023-04-28T22:38:38;5.87;;;5.17;;
10063;SDS011;5071;52.360;13.134;2023-04-28T22:43:40;10.77;;;5.83;;
10063;SDS011;5071;52.360;13.134;2023-04-28T22:48:42;6.00;;;5.37;;
10063;SDS011;5071;52.360;13.134;2023-04-28T22:53:46;9.40;;;6.00;;
10063;SDS011;5071;52.360;13.134;2023-04-28T22:58:48;7.37;;;5.90;;
10063;SDS011;5071;52.360;13.134;2023-04-28T23:03:50;8.07;;;6.27;;
10063;SDS011;5071;52.360;13.134;2023-04-28T23:08:54;7.87;;;6.20;;
10063;SDS011;5071;52.360;13.134;2023-04-28T23:13:56;8.60;;;6.37;;
10063;SDS011;5071;52.360;13.134;2023-04-28T23:18:58;9.03;;;6.67;;
10063;SDS011;5071;52.360;13.134;2023-04-28T23:24:01;7.07;;;5.83;;
10063;SDS011;5071;52.360;13.134;2023-04-28T23:29:04;7.33;;;6.60;;
10063;SDS011;5071;52.360;13.134;2023-04-28T23:34:06;7.97;;;5.83;;
10063;SDS011;5071;52.360;13.134;2023-04-28T23:39:10;9.37;;;6.07;;
10063;SDS011;5071;52.360;13.134;2023-04-28T23:44:12;6.83;;;6.00;;
10063;SDS011;5071;52.360;13.134;2023-04-28T23:49:14;7.90;;;5.40;;
10063;SDS011;5071;52.360;13.134;2023-04-28T23:54:17;6.30;;;5.23;;
10063;SDS011;5071;52.360;13.134;2023-04-28T23:59:20;7.17;;;6.03;;
